createdAt,value
2019-04-10T00:02:45.935Z,90.00
2019-04-10T00:07:54.027Z,89.90
2019-04-10T00:13:04.435Z,89.60
2019-04-10T00:18:12.208Z,89.10
2019-04-10T00:23:21.466Z,89.30
2019-04-10T00:28:29.634Z,89.80
2019-04-10T00:33:37.765Z,89.10
2019-04-10T00:38:46.794Z,88.90
2019-04-10T00:43:55.255Z,88.70
2019-04-10T00:49:03.100Z,88.90
2019-04-10T00:54:10.296Z,88.60
2019-04-10T00:59:18.444Z,88.40
2019-04-10T01:04:26.605Z,88.90
2019-04-10T01:09:34.349Z,91.10
2019-04-10T01:14:42.166Z,91.00
2019-04-10T01:19:50.581Z,88.80
2019-04-10T01:25:02.213Z,87.30
2019-04-10T01:30:10.723Z,87.20
2019-04-10T01:35:18.239Z,86.80
2019-04-10T01:40:26.825Z,87.00
2019-04-10T01:45:35.584Z,87.50
2019-04-10T01:50:44.371Z,85.80
2019-04-10T01:55:52.115Z,85.60
2019-04-10T02:01:00.395Z,86.00
2019-04-10T02:06:07.905Z,86.00
2019-04-10T02:11:16.126Z,85.50
2019-04-10T02:16:25.531Z,85.80
2019-04-10T02:21:34.205Z,85.00
2019-04-10T02:26:42.054Z,83.10
2019-04-10T02:31:50.684Z,83.50
2019-04-10T02:37:00.659Z,83.20
2019-04-10T02:42:08.359Z,83.20
2019-04-10T02:47:16.860Z,81.90
2019-04-10T02:52:26.634Z,81.70
2019-04-10T02:57:35.016Z,81.40
2019-04-10T03:02:43.096Z,81.60
2019-04-10T03:07:52.455Z,82.10
2019-04-10T03:13:00.774Z,81.00
2019-04-10T03:18:08.617Z,82.00
2019-04-10T03:23:15.673Z,81.70
2019-04-10T03:28:32.005Z,78.00
2019-04-10T03:33:46.626Z,76.80
2019-04-10T03:38:58.582Z,76.10
2019-04-10T03:44:00.566Z,77.40
2019-04-10T03:49:11.666Z,76.20
2019-04-10T03:54:21.284Z,76.40
2019-04-10T03:59:32.661Z,75.40
2019-04-10T04:04:39.939Z,74.80
2019-04-10T04:09:48.491Z,74.50
2019-04-10T04:14:56.758Z,73.40
2019-04-10T04:20:06.655Z,74.00
2019-04-10T04:25:14.835Z,72.30
2019-04-10T04:30:22.421Z,72.60
2019-04-10T04:35:29.964Z,70.80
2019-04-10T04:40:41.976Z,71.40
2019-04-10T04:45:50.686Z,72.60
2019-04-10T04:50:59.839Z,72.70
2019-04-10T04:56:09.716Z,71.60
2019-04-10T05:01:17.677Z,71.00
2019-04-10T05:06:28.582Z,69.20
2019-04-10T05:11:48.913Z,68.30
2019-04-10T05:16:57.667Z,69.20
2019-04-10T05:22:06.069Z,66.20
2019-04-10T05:27:16.838Z,66.50
2019-04-10T05:32:26.695Z,66.00
2019-04-10T05:37:35.968Z,66.40
2019-04-10T05:42:43.686Z,66.00
2019-04-10T05:47:56.957Z,66.50
2019-04-10T05:53:07.775Z,66.00
2019-04-10T05:58:19.588Z,67.50
2019-04-10T06:03:32.297Z,63.90
2019-04-10T06:08:43.563Z,64.60
2019-04-10T06:13:54.338Z,63.50
2019-04-10T06:19:01.903Z,64.70
2019-04-10T06:24:12.052Z,63.50
2019-04-10T06:29:19.483Z,63.00
2019-04-10T06:34:28.611Z,62.90
2019-04-10T06:39:38.486Z,64.20
2019-04-10T06:44:50.232Z,63.10
2019-04-10T06:49:58.761Z,63.30
2019-04-10T06:55:11.270Z,63.20
2019-04-10T07:00:21.386Z,65.40
2019-04-10T07:05:40.030Z,67.90
2019-04-10T07:10:49.149Z,71.40
2019-04-10T07:15:47.261Z,71.40
2019-04-10T07:20:58.362Z,70.10
2019-04-10T07:26:10.521Z,67.30
2019-04-10T07:31:21.385Z,67.70
2019-04-10T07:36:32.855Z,66.90
2019-04-10T07:41:41.725Z,64.90
2019-04-10T07:46:58.295Z,64.60
2019-04-10T07:52:22.929Z,63.00
2019-04-10T07:57:33.700Z,62.70
2019-04-10T08:02:40.604Z,62.40
2019-04-10T08:08:19.262Z,60.90
2019-04-10T08:13:33.182Z,59.90
2019-04-10T08:18:40.492Z,60.00
2019-04-10T08:23:49.200Z,59.60
2019-04-10T08:28:57.155Z,58.00
2019-04-10T08:34:06.570Z,57.90
2019-04-10T08:39:26.978Z,55.90
2019-04-10T08:44:24.211Z,56.70
2019-04-10T08:49:31.358Z,56.70
2019-04-10T08:54:38.543Z,56.10
2019-04-10T08:59:48.487Z,56.90
2019-04-10T09:04:57.263Z,56.30
2019-04-10T09:10:06.977Z,56.50
2019-04-10T09:15:15.948Z,54.90
2019-04-10T09:20:24.805Z,55.10
2019-04-10T09:25:33.293Z,55.00
2019-04-10T09:30:43.198Z,55.90
2019-04-10T09:35:50.914Z,56.40
2019-04-10T09:41:07.787Z,56.30
2019-04-10T09:46:18.978Z,56.10
2019-04-10T09:51:26.668Z,55.40
2019-04-10T09:56:54.872Z,55.10
2019-04-10T10:02:09.426Z,56.20
2019-04-10T10:07:20.724Z,55.60
2019-04-10T10:12:34.406Z,56.00
2019-04-10T10:17:42.407Z,56.50
2019-04-10T10:22:50.191Z,56.20
2019-04-10T10:27:59.624Z,56.30
2019-04-10T10:33:07.765Z,56.80
2019-04-10T10:38:15.360Z,57.10
2019-04-10T10:43:30.060Z,58.00
2019-04-10T10:48:39.910Z,58.10
2019-04-10T10:53:50.885Z,58.00
2019-04-10T10:58:59.110Z,58.60
2019-04-10T11:04:06.846Z,59.10
2019-04-10T11:09:18.089Z,60.00
2019-04-10T11:14:25.367Z,61.40
2019-04-10T11:19:35.490Z,61.90
2019-04-10T11:24:44.389Z,62.40
2019-04-10T11:29:53.264Z,62.40
2019-04-10T11:35:03.275Z,62.40
2019-04-10T11:40:09.756Z,62.80
2019-04-10T11:45:18.644Z,63.90
2019-04-10T11:50:28.118Z,62.80
2019-04-10T11:55:43.072Z,62.90
2019-04-10T12:00:51.285Z,62.80
2019-04-10T12:05:55.578Z,63.30
2019-04-10T12:16:09.826Z,64.20
2019-04-10T12:21:19.785Z,64.20
2019-04-10T12:26:28.374Z,64.70
2019-04-10T12:31:39.700Z,64.70
2019-04-10T12:36:51.768Z,64.50
2019-04-10T12:42:07.957Z,64.70
2019-04-10T12:47:18.582Z,65.00
2019-04-10T12:52:27.145Z,65.50
2019-04-10T12:57:34.907Z,65.70
2019-04-10T13:02:43.337Z,66.00
2019-04-10T13:07:51.851Z,66.10
2019-04-10T13:13:02.417Z,66.30
2019-04-10T13:18:09.131Z,66.70
2019-04-10T13:23:17.802Z,66.80
2019-04-10T13:28:25.522Z,66.50
2019-04-10T13:33:32.953Z,66.80
2019-04-10T13:38:51.394Z,67.20
2019-04-10T13:43:58.790Z,67.60
2019-04-10T13:49:06.022Z,67.90
2019-04-10T13:54:15.049Z,68.10
2019-04-10T13:59:22.663Z,69.20
2019-04-10T14:04:31.219Z,69.10
2019-04-10T14:09:44.052Z,69.20
2019-04-10T14:14:47.047Z,69.60
2019-04-10T14:19:54.220Z,69.60
2019-04-10T14:25:01.498Z,69.90
2019-04-10T14:30:11.317Z,69.90
2019-04-10T14:35:18.953Z,70.60
2019-04-10T14:40:26.215Z,70.80
2019-04-10T14:45:35.339Z,71.30
2019-04-10T14:50:42.528Z,71.10
2019-04-10T14:55:53.495Z,71.30
2019-04-10T15:01:02.634Z,71.60
2019-04-10T15:06:09.214Z,71.50
2019-04-10T15:11:16.818Z,71.40
2019-04-10T15:16:25.102Z,72.00
2019-04-10T15:21:32.207Z,72.20
2019-04-10T15:26:39.089Z,72.40
2019-04-10T15:31:46.592Z,72.30
2019-04-10T15:36:56.405Z,72.10
2019-04-10T15:42:16.853Z,72.50
2019-04-10T15:47:27.028Z,72.20
2019-04-10T15:52:35.222Z,72.10
2019-04-10T15:57:47.715Z,71.80
2019-04-10T16:03:02.838Z,72.00
2019-04-10T16:08:14.224Z,72.20
2019-04-10T16:13:22.516Z,72.50
2019-04-10T16:18:46.688Z,72.90
2019-04-10T16:23:56.265Z,73.00
2019-04-10T16:29:05.221Z,73.40
2019-04-10T16:34:13.474Z,73.10
2019-04-10T16:39:22.247Z,73.30
2019-04-10T16:44:30.290Z,73.50
2019-04-10T16:49:37.557Z,73.60
2019-04-10T16:54:45.227Z,74.00
2019-04-10T16:59:52.907Z,73.90
2019-04-10T17:05:00.510Z,74.50
2019-04-10T17:10:17.716Z,74.90
2019-04-10T17:15:19.769Z,75.30
2019-04-10T17:20:28.659Z,75.30
2019-04-10T17:25:36.431Z,75.10
2019-04-10T17:30:44.187Z,75.10
2019-04-10T17:35:51.801Z,74.90
2019-04-10T17:41:00.778Z,74.80
2019-04-10T17:46:07.593Z,75.30
2019-04-10T17:51:15.232Z,75.60
2019-04-10T17:56:22.722Z,75.60
2019-04-10T18:01:30.472Z,75.70
2019-04-10T18:06:37.525Z,75.10
2019-04-10T18:11:45.692Z,74.60
2019-04-10T18:16:53.993Z,74.10
2019-04-10T18:22:04.134Z,73.80
2019-04-10T18:27:12.259Z,73.50
2019-04-10T18:32:21.275Z,73.10
2019-04-10T18:37:29.674Z,73.10
2019-04-10T18:42:38.551Z,73.30
2019-04-10T18:47:46.461Z,73.30
2019-04-10T18:52:53.941Z,73.20
2019-04-10T18:58:03.204Z,73.30
2019-04-10T19:03:13.045Z,73.40
2019-04-10T19:08:21.767Z,73.70
2019-04-10T19:13:32.772Z,74.10
2019-04-10T19:18:40.276Z,74.30
2019-04-10T19:23:47.962Z,74.50
2019-04-10T19:28:55.306Z,74.60
2019-04-10T19:34:03.229Z,74.80
2019-04-10T19:39:11.228Z,74.80
2019-04-10T19:44:19.080Z,75.30
2019-04-10T19:49:26.619Z,75.70
2019-04-10T19:54:35.351Z,75.70
2019-04-10T19:59:42.312Z,75.80
2019-04-10T20:04:49.044Z,76.30
2019-04-10T20:09:56.925Z,76.60
2019-04-10T20:15:04.402Z,77.00
2019-04-10T20:20:19.374Z,77.10
2019-04-10T20:25:28.195Z,77.80
2019-04-10T20:30:37.026Z,78.30
2019-04-10T20:35:45.316Z,77.50
2019-04-10T20:40:53.954Z,77.20
2019-04-10T20:46:02.135Z,76.80
2019-04-10T20:51:09.711Z,76.60
2019-04-10T20:56:18.286Z,76.60
2019-04-10T21:01:29.552Z,76.40
2019-04-10T21:06:39.483Z,76.40
2019-04-10T21:11:58.912Z,76.70
2019-04-10T21:16:53.966Z,76.80
2019-04-10T21:22:01.814Z,77.00
2019-04-10T21:27:09.157Z,77.10
2019-04-10T21:32:16.912Z,77.80
2019-04-10T21:37:24.340Z,76.80
2019-04-10T21:42:31.585Z,77.00
2019-04-10T21:47:39.419Z,77.10
2019-04-10T21:52:47.512Z,77.40
2019-04-10T21:57:55.435Z,77.50
2019-04-10T22:03:02.909Z,77.70
2019-04-10T22:08:11.142Z,78.30
2019-04-10T22:13:17.997Z,78.60
2019-04-10T22:18:25.505Z,78.80
2019-04-10T22:23:32.665Z,79.30
2019-04-10T22:28:41.278Z,79.50
2019-04-10T22:33:48.918Z,80.10
2019-04-10T22:38:57.033Z,80.20
2019-04-10T22:44:05.378Z,80.60
2019-04-10T22:49:12.558Z,80.70
2019-04-10T22:54:19.949Z,81.00
2019-04-10T22:59:28.385Z,81.30
2019-04-10T23:04:36.937Z,81.50
2019-04-10T23:09:44.440Z,81.90
2019-04-10T23:14:51.901Z,81.90
2019-04-10T23:20:00.620Z,81.60
2019-04-10T23:25:09.946Z,82.00
2019-04-10T23:30:19.939Z,82.20
2019-04-10T23:35:27.637Z,82.80
2019-04-10T23:40:35.400Z,83.20
2019-04-10T23:45:42.483Z,84.10
2019-04-10T23:50:54.401Z,84.40
2019-04-10T23:56:04.676Z,84.60
